createdAt,value
2022-10-20T00:05:43.671Z,18.10
2022-10-20T00:15:43.846Z,17.00
2022-10-20T00:25:44.132Z,16.90
2022-10-20T00:35:44.167Z,11.20
2022-10-20T00:45:44.486Z,13.20
2022-10-20T00:55:44.539Z,9.90
2022-10-20T01:05:44.825Z,14.20
2022-10-20T01:15:44.847Z,23.60
2022-10-20T01:25:45.174Z,16.80
2022-10-20T01:35:45.344Z,15.20
2022-10-20T01:45:45.423Z,13.00
2022-10-20T01:55:45.451Z,17.40
2022-10-20T02:05:45.770Z,18.20
2022-10-20T02:15:45.799Z,17.30
2022-10-20T02:25:46.732Z,23.60
2022-10-20T02:35:46.167Z,13.10
2022-10-20T02:45:48.016Z,19.40
2022-10-20T02:55:46.725Z,17.30
2022-10-20T03:05:46.829Z,16.30
2022-10-20T03:15:46.850Z,15.50
2022-10-20T03:25:47.175Z,15.20
2022-10-20T03:35:47.192Z,16.10
2022-10-20T03:45:47.532Z,16.10
2022-10-20T03:55:47.550Z,17.10
2022-10-20T04:05:47.983Z,12.90
2022-10-20T04:15:48.008Z,10.10
2022-10-20T04:25:48.333Z,17.20
2022-10-20T04:35:48.366Z,12.10
2022-10-20T04:45:48.682Z,24.40
2022-10-20T04:55:48.693Z,16.00
2022-10-20T05:05:49.029Z,14.80
2022-10-20T05:15:49.052Z,16.90
2022-10-20T05:25:49.369Z,12.80
2022-10-20T05:35:49.396Z,16.50
2022-10-20T05:45:49.717Z,14.50
2022-10-20T05:55:49.738Z,19.10
2022-10-20T06:05:50.074Z,17.10
2022-10-20T06:15:50.095Z,37.70
2022-10-20T06:25:50.423Z,34.70
2022-10-20T06:35:50.461Z,54.50
2022-10-20T06:45:50.761Z,113.90
2022-10-20T06:55:50.800Z,154.60
2022-10-20T07:05:51.119Z,81.60
2022-10-20T07:15:51.139Z,75.90
2022-10-20T07:25:51.464Z,111.30
2022-10-20T07:35:51.473Z,120.90
2022-10-20T07:45:51.829Z,74.10
2022-10-20T07:55:51.808Z,48.10
2022-10-20T08:05:52.076Z,32.20
2022-10-20T08:15:53.064Z,34.60
2022-10-20T08:25:52.422Z,31.80
2022-10-20T08:35:52.453Z,54.50
2022-10-20T08:45:52.762Z,28.50
2022-10-20T08:55:52.792Z,21.80
2022-10-20T09:05:53.125Z,26.40
2022-10-20T09:15:53.138Z,26.10
2022-10-20T09:25:53.460Z,23.60
2022-10-20T09:35:53.478Z,28.10
2022-10-20T09:45:53.823Z,30.30
2022-10-20T09:55:53.896Z,26.60
2022-10-20T10:05:54.166Z,34.50
2022-10-20T10:15:53.994Z,27.80
2022-10-20T10:25:57.854Z,27.20
2022-10-20T10:35:55.489Z,29.90
2022-10-20T10:45:54.718Z,29.90
2022-10-20T10:55:54.968Z,28.50
2022-10-20T11:05:55.052Z,31.10
2022-10-20T11:15:55.274Z,31.60
2022-10-20T11:25:55.553Z,33.70
2022-10-20T11:35:55.575Z,35.60
2022-10-20T11:45:55.935Z,32.70
2022-10-20T11:55:55.952Z,32.80
2022-10-20T12:05:56.262Z,31.20
2022-10-20T12:15:56.286Z,27.70
2022-10-20T12:25:56.632Z,33.30
2022-10-20T12:35:56.684Z,29.90
2022-10-20T12:45:56.961Z,31.20
2022-10-20T12:55:57.003Z,30.40
2022-10-20T13:05:57.320Z,35.20
2022-10-20T13:15:57.332Z,29.40
2022-10-20T13:25:57.660Z,35.20
2022-10-20T13:35:57.689Z,27.30
2022-10-20T13:45:58.009Z,32.30
2022-10-20T13:55:58.048Z,32.10
2022-10-20T14:05:58.363Z,35.10
2022-10-20T14:15:58.392Z,30.00
2022-10-20T14:25:58.716Z,39.00
2022-10-20T14:35:58.758Z,29.00
2022-10-20T14:45:59.067Z,32.60
2022-10-20T14:55:59.118Z,30.60
2022-10-20T15:05:59.408Z,35.50
2022-10-20T15:15:59.437Z,31.90
2022-10-20T15:25:59.766Z,35.10
2022-10-20T15:35:59.799Z,37.70
2022-10-20T15:46:00.118Z,33.90
2022-10-20T15:56:00.126Z,33.60
2022-10-20T16:06:00.633Z,36.20
2022-10-20T16:16:00.493Z,42.30
2022-10-20T16:26:00.812Z,36.80
2022-10-20T16:36:00.875Z,39.60
2022-10-20T16:46:00.953Z,38.80
2022-10-20T16:56:00.996Z,40.70
2022-10-20T17:06:01.561Z,79.20
2022-10-20T17:16:01.598Z,41.00
2022-10-20T17:26:02.002Z,36.60
2022-10-20T17:36:02.070Z,35.60
2022-10-20T17:46:03.098Z,38.20
2022-10-20T17:56:02.401Z,40.10
2022-10-20T18:06:02.909Z,35.30
2022-10-20T18:16:03.100Z,42.70
2022-10-20T18:26:03.362Z,34.40
2022-10-20T18:36:04.193Z,33.20
2022-10-20T18:46:03.836Z,38.10
2022-10-20T18:56:03.994Z,38.60
2022-10-20T19:06:04.701Z,39.80
2022-10-20T19:16:04.256Z,59.90
2022-10-20T19:26:04.507Z,39.90
2022-10-20T19:36:04.604Z,35.40
2022-10-20T19:46:04.884Z,32.00
2022-10-20T19:56:04.814Z,35.80
2022-10-20T20:06:04.892Z,35.90
2022-10-20T20:16:07.117Z,39.40
2022-10-20T20:26:05.076Z,39.40
2022-10-20T20:36:05.484Z,44.80
2022-10-20T20:46:05.669Z,40.60
2022-10-20T20:56:05.749Z,40.10
2022-10-20T21:06:05.825Z,44.80
2022-10-20T21:16:05.846Z,47.80
2022-10-20T21:26:06.159Z,39.90
2022-10-20T21:36:06.177Z,40.70
2022-10-20T21:46:06.518Z,41.10
2022-10-20T21:56:06.532Z,35.40
2022-10-20T22:06:06.855Z,39.50
2022-10-20T22:16:06.878Z,36.30
2022-10-20T22:26:07.247Z,35.30
2022-10-20T22:36:07.279Z,33.00
2022-10-20T22:46:07.554Z,31.40
2022-10-20T22:56:07.577Z,33.00
2022-10-20T23:06:07.917Z,23.10
2022-10-20T23:16:07.953Z,21.40
2022-10-20T23:26:08.253Z,15.50
2022-10-20T23:36:08.279Z,20.40
2022-10-20T23:46:08.607Z,18.20
2022-10-20T23:56:08.630Z,15.30
